Circleville, West Virginia
Current Conditions -  °F | °C
As of 5:51 PM on Friday 31 Oct 2014 (Local Time) from KEKN Reporting Station
Light Rain Light Rain  
Wind Chill: 42°   Ceiling: 2300
Heat Index: 42°   Visibility: 7mi
Dew Point: 40°   Wind: 0mph
Humidity: 92%   Direction: NA
Pressure: 29.84"   Gusts: NA
Location:  38.67°N, 79.49°W
Report Text: KEKN 312151Z AUTO 00000KT 7SM -RA OVC023 06/04 A2984 RMK AO2 SLP121 P0001 T00560044 TSNO
Loading
Personal Weather Stations






























Interactive Weather Map
Tropical Storm Tracking
New forecast layout! Learn more

10-Day Weather Forecast

Advertisements
Track Severe Weather on mobile